Time;durP1;ratioP1;P1;durP2;ratioP2;P2;SDS_P1;SDS_P2;PMS_P1;PMS_P2;Temp;Humidity;BMP_temperature;BMP_pressure;BME280_temperature;BME280_humidity;BME280_pressure;Samples;Min_cycle;Max_cycle;Signal;HPM_P1;HPM_P2
2022/11/16 00:02:14;;;;;;;5.30;3.37;;;14.20;99.90;;;;;;4972947;28;20237;-72
2022/11/16 00:04:40;;;;;;;3.33;3.03;;;14.20;99.90;;;;;;4972804;28;20288;-72
2022/11/16 00:07:06;;;;;;;3.50;3.20;;;14.20;99.90;;;;;;4972788;28;20182;-72
2022/11/16 00:09:32;;;;;;;7.77;3.53;;;14.10;99.90;;;;;;4972605;28;20181;-72
2022/11/16 00:12:00;;;;;;;5.17;3.20;;;14.00;99.90;;;;;;4972938;28;20201;-72
2022/11/16 00:14:28;;;;;;;4.10;3.20;;;14.00;99.90;;;;;;4972767;28;20425;-71
2022/11/16 00:16:54;;;;;;;4.10;3.70;;;14.00;99.90;;;;;;4972776;28;20528;-71
2022/11/16 00:19:20;;;;;;;4.40;4.00;;;14.00;99.90;;;;;;4972759;28;20425;-71
2022/11/16 00:21:46;;;;;;;5.13;3.57;;;13.90;99.90;;;;;;4972679;28;20444;-71
2022/11/16 00:24:14;;;;;;;4.53;3.30;;;13.90;99.90;;;;;;4972839;28;20214;-71
2022/11/16 00:26:40;;;;;;;3.93;3.53;;;13.80;99.90;;;;;;4976179;28;20532;-71
2022/11/16 00:29:06;;;;;;;6.57;3.83;;;13.80;99.90;;;;;;4976198;28;20475;-71
2022/11/16 00:31:31;;;;;;;6.30;4.27;;;13.80;99.90;;;;;;4975729;28;20890;-71
2022/11/16 00:33:57;;;;;;;3.77;3.27;;;13.80;99.90;;;;;;4958636;28;20174;-71
2022/11/16 00:36:22;;;;;;;4.60;3.90;;;13.90;99.90;;;;;;4976063;28;20264;-71
2022/11/16 00:38:51;;;;;;;5.17;4.43;;;13.80;99.90;;;;;;4975913;28;20312;-71
2022/11/16 00:41:17;;;;;;;7.47;4.33;;;13.80;99.90;;;;;;4975927;28;20186;-71
2022/11/16 00:43:42;;;;;;;4.70;4.20;;;13.70;99.90;;;;;;4975591;28;20789;-71
2022/11/16 00:46:08;;;;;;;8.77;5.17;;;13.70;99.90;;;;;;4975719;28;20269;-71
2022/11/16 00:48:34;;;;;;;4.53;3.83;;;13.70;99.90;;;;;;4975910;28;20174;-71
2022/11/16 00:50:59;;;;;;;6.83;5.00;;;13.70;99.90;;;;;;4975688;28;20186;-71
2022/11/16 00:53:25;;;;;;;4.37;3.93;;;13.70;99.90;;;;;;4975594;28;20228;-71
2022/11/16 00:55:50;;;;;;;6.03;4.63;;;13.60;99.90;;;;;;4975457;28;20236;-71
2022/11/16 00:58:16;;;;;;;7.40;5.07;;;13.70;99.90;;;;;;4975658;28;20186;-71
2022/11/16 01:00:42;;;;;;;8.90;5.80;;;13.60;99.90;;;;;;4975463;28;20268;-71
2022/11/16 01:03:08;;;;;;;6.20;4.60;;;13.60;99.90;;;;;;4958271;28;20178;-71
2022/11/16 01:05:34;;;;;;;4.93;4.03;;;13.60;99.90;;;;;;4975271;28;20840;-71
2022/11/16 01:07:59;;;;;;;6.60;5.03;;;13.60;99.90;;;;;;4975817;28;20912;-71
2022/11/16 01:10:26;;;;;;;6.53;4.57;;;13.60;99.90;;;;;;4975356;28;20182;-71
2022/11/16 01:12:54;;;;;;;5.60;5.10;;;13.60;99.90;;;;;;4975255;28;20186;-71
2022/11/16 01:15:22;;;;;;;5.63;4.80;;;13.60;99.90;;;;;;4975101;28;20887;-71
2022/11/16 01:17:47;;;;;;;6.53;4.63;;;13.60;99.90;;;;;;4975159;28;20425;-71
2022/11/16 01:20:18;;;;;;;6.70;4.40;;;13.60;99.90;;;;;;4975098;28;20445;-71
2022/11/16 01:22:44;;;;;;;6.40;4.80;;;13.50;99.90;;;;;;4975049;28;20297;-71
2022/11/16 01:25:11;;;;;;;5.87;4.30;;;13.50;99.90;;;;;;4974995;28;20598;-71
2022/11/16 01:27:37;;;;;;;10.47;6.00;;;13.50;99.90;;;;;;4974975;28;20790;-71
2022/11/16 01:30:04;;;;;;;5.07;4.30;;;13.50;99.90;;;;;;4974989;28;20569;-71
2022/11/16 01:32:30;;;;;;;6.80;5.00;;;13.50;99.90;;;;;;4974562;28;20461;-72
2022/11/16 05:32:39;;;;;;;5.03;3.27;;;12.90;99.90;;;;;;4988256;23;21014;-72
2022/11/16 05:35:05;;;;;;;3.50;2.60;;;12.90;99.90;;;;;;4976117;28;20441;-72
2022/11/16 05:37:30;;;;;;;3.33;2.73;;;12.80;99.90;;;;;;4975852;28;20178;-71
2022/11/16 05:39:56;;;;;;;5.13;3.20;;;12.80;99.90;;;;;;4963230;28;20587;-78
2022/11/16 05:42:22;;;;;;;4.57;3.70;;;12.80;99.90;;;;;;4956551;29;20182;-77
2022/11/16 05:44:47;;;;;;;4.13;3.33;;;12.80;99.90;;;;;;4957761;28;20234;-77
2022/11/16 05:47:13;;;;;;;4.73;3.47;;;12.80;99.90;;;;;;4964002;28;20244;-76
2022/11/16 05:49:38;;;;;;;4.23;3.10;;;12.90;99.90;;;;;;4972064;28;20178;-77
2022/11/16 05:52:04;;;;;;;3.90;3.60;;;12.90;99.90;;;;;;4975579;28;20181;-77
2022/11/16 05:54:30;;;;;;;3.10;2.80;;;12.80;99.90;;;;;;4975610;28;20241;-76
2022/11/16 05:56:56;;;;;;;5.10;3.90;;;12.80;99.90;;;;;;4975619;28;20185;-77
2022/11/16 05:59:22;;;;;;;3.83;3.53;;;12.80;99.90;;;;;;4975358;28;20186;-77
2022/11/16 06:01:48;;;;;;;7.93;2.80;;;12.80;99.90;;;;;;4975470;28;20433;-77
2022/11/16 06:04:14;;;;;;;6.13;2.50;;;12.80;99.90;;;;;;4975040;28;20515;-77
2022/11/16 06:06:40;;;;;;;2.73;2.30;;;12.70;99.90;;;;;;4971842;28;20531;-75
2022/11/16 06:09:07;;;;;;;4.10;2.23;;;12.80;99.90;;;;;;4972252;28;20189;-74
2022/11/16 06:11:33;;;;;;;2.90;2.27;;;12.90;99.90;;;;;;4964501;28;20181;-74
2022/11/16 06:13:58;;;;;;;2.73;2.23;;;12.80;99.90;;;;;;4964999;28;20444;-73
2022/11/16 06:16:24;;;;;;;1.70;1.60;;;12.80;99.90;;;;;;4965858;28;20952;-72
2022/11/16 06:18:50;;;;;;;2.57;2.37;;;12.80;99.90;;;;;;4964160;28;20257;-76
2022/11/16 06:21:17;;;;;;;2.70;2.13;;;12.80;99.90;;;;;;4965298;28;20174;-79
2022/11/16 06:23:43;;;;;;;1.70;1.60;;;12.80;99.90;;;;;;4957672;28;20210;-75
2022/11/16 06:26:09;;;;;;;1.77;1.50;;;12.80;99.90;;;;;;4960878;28;20519;-73
2022/11/16 06:28:35;;;;;;;3.37;1.80;;;12.80;99.90;;;;;;4964503;28;20429;-73
2022/11/16 06:31:01;;;;;;;4.53;1.70;;;12.80;99.90;;;;;;4964286;28;20473;-75
2022/11/16 06:33:27;;;;;;;5.30;1.77;;;12.80;99.90;;;;;;4965711;28;20178;-73
2022/11/16 06:35:52;;;;;;;2.33;1.80;;;12.80;99.90;;;;;;4963237;28;20485;-81
2022/11/16 06:38:19;;;;;;;7.63;1.80;;;12.70;99.90;;;;;;4963696;28;20187;-77
2022/11/16 06:40:49;;;;;;;2.87;1.33;;;12.70;99.90;;;;;;4962860;28;20622;-77
2022/11/16 06:43:15;;;;;;;1.40;1.30;;;12.80;99.90;;;;;;4963307;28;20466;-77
2022/11/16 06:45:40;;;;;;;2.20;1.47;;;12.70;99.90;;;;;;4963137;28;20484;-77
2022/11/16 06:48:06;;;;;;;3.03;1.80;;;12.70;99.90;;;;;;4964746;28;20520;-77
2022/11/16 06:50:32;;;;;;;3.00;1.90;;;12.70;99.90;;;;;;4945428;28;20206;-74
2022/11/16 06:52:59;;;;;;;2.33;1.30;;;12.70;99.90;;;;;;4973693;28;20173;-75
2022/11/16 06:55:26;;;;;;;2.90;1.07;;;12.80;99.90;;;;;;4972828;28;20182;-76
2022/11/16 06:57:51;;;;;;;2.67;1.53;;;12.80;99.90;;;;;;4973466;28;20932;-75
2022/11/16 07:00:17;;;;;;;2.03;1.40;;;12.80;99.90;;;;;;4973551;28;20479;-76
2022/11/16 07:02:42;;;;;;;2.77;1.90;;;12.80;99.90;;;;;;4973163;28;20177;-76
2022/11/16 07:05:08;;;;;;;2.47;2.00;;;12.70;99.90;;;;;;4973229;28;20209;-76
2022/11/16 07:07:33;;;;;;;3.40;1.50;;;12.80;99.90;;;;;;4973247;28;20184;-77
2022/11/16 07:09:59;;;;;;;2.97;1.70;;;12.70;99.90;;;;;;4966356;28;20181;-75
2022/11/16 07:12:25;;;;;;;4.33;1.80;;;12.70;99.90;;;;;;4963062;28;20265;-74
2022/11/16 07:14:50;;;;;;;3.80;1.60;;;12.70;99.90;;;;;;4970375;28;20186;-74
2022/11/16 07:17:16;;;;;;;1.70;1.60;;;12.70;99.90;;;;;;4973358;28;20421;-81
2022/11/16 07:19:41;;;;;;;3.40;1.53;;;12.70;99.90;;;;;;4955962;28;20551;-84
2022/11/16 07:22:07;;;;;;;4.20;2.30;;;12.70;99.90;;;;;;4973341;28;20177;-84
2022/11/16 07:24:33;;;;;;;4.03;2.07;;;12.70;99.90;;;;;;4973008;28;20221;-77
2022/11/16 07:26:58;;;;;;;3.00;1.83;;;12.70;99.90;;;;;;4973246;28;20660;-80
2022/11/16 07:29:24;;;;;;;8.07;3.77;;;12.50;99.90;;;;;;4973061;28;20182;-79
2022/11/16 07:31:50;;;;;;;4.20;2.30;;;12.60;99.90;;;;;;4973197;28;20559;-79
2022/11/16 07:34:15;;;;;;;3.10;2.40;;;12.70;99.90;;;;;;4975338;28;20637;-76
2022/11/16 07:36:41;;;;;;;2.73;2.30;;;12.70;99.90;;;;;;4977147;28;20551;-78
2022/11/16 07:39:09;;;;;;;3.90;2.50;;;12.70;99.90;;;;;;4966883;28;20182;-79
2022/11/16 07:41:35;;;;;;;5.63;2.80;;;12.80;99.90;;;;;;4970895;28;20173;-80
2022/11/16 07:44:00;;;;;;;6.13;3.10;;;12.80;99.90;;;;;;4975625;28;20500;-82
2022/11/16 07:46:26;;;;;;;3.70;3.03;;;12.90;99.90;;;;;;4975827;28;20441;-82
2022/11/16 07:48:52;;;;;;;5.00;3.30;;;12.90;99.90;;;;;;4976158;28;20174;-86
2022/11/16 07:51:18;;;;;;;3.10;2.80;;;12.90;99.90;;;;;;4976620;28;20936;-78
2022/11/16 07:53:44;;;;;;;9.33;3.97;;;12.90;99.90;;;;;;4976614;28;20432;-79
2022/11/16 07:56:11;;;;;;;3.50;2.80;;;12.80;99.90;;;;;;4976518;28;20433;-76
2022/11/16 07:58:37;;;;;;;4.60;2.87;;;12.90;99.90;;;;;;4976657;28;20441;-77
2022/11/16 08:01:13;;;;;;;7.57;3.90;;;12.90;99.90;;;;;;4976478;28;20425;-76
2022/11/16 08:03:40;;;;;;;8.43;2.80;;;13.00;99.90;;;;;;4976779;28;20432;-76
2022/11/16 08:06:18;;;;;;;7.00;2.97;;;12.90;99.90;;;;;;4976534;28;20571;-76
2022/11/16 08:08:43;;;;;;;4.20;2.73;;;12.90;99.90;;;;;;4976594;28;20425;-76
2022/11/16 08:11:10;;;;;;;11.53;3.13;;;12.90;99.90;;;;;;4976581;28;20433;-76
2022/11/16 08:13:37;;;;;;;7.47;3.23;;;13.00;99.90;;;;;;4976484;28;20186;-77
2022/11/16 08:16:09;;;;;;;7.43;2.30;;;12.90;99.90;;;;;;4976503;28;20504;-77
2022/11/16 08:18:36;;;;;;;9.23;2.60;;;12.90;99.90;;;;;;4976411;28;20519;-77
2022/11/16 08:21:03;;;;;;;5.10;3.03;;;12.90;99.90;;;;;;4976493;28;20480;-77
2022/11/16 08:23:29;;;;;;;4.90;2.50;;;12.90;99.90;;;;;;4976169;28;20435;-78
2022/11/16 08:26:02;;;;;;;3.53;2.23;;;12.90;99.90;;;;;;4976191;28;20479;-76
2022/11/16 08:28:29;;;;;;;6.65;2.30;;;12.80;99.90;;;;;;4975283;28;20905;-77
2022/11/16 08:30:55;;;;;;;6.53;3.27;;;12.90;99.90;;;;;;4975945;28;20593;-77
2022/11/16 08:33:22;;;;;;;2.70;2.50;;;12.90;99.90;;;;;;4976365;28;20433;-81
2022/11/16 08:35:48;;;;;;;4.63;2.50;;;12.90;99.90;;;;;;4976176;28;20468;-83
2022/11/16 08:38:13;;;;;;;4.00;2.40;;;13.00;99.90;;;;;;4976052;28;20461;-78
2022/11/16 08:40:40;;;;;;;5.73;3.13;;;13.10;99.90;;;;;;4976035;28;20229;-86
2022/11/16 08:43:05;;;;;;;5.63;2.10;;;13.00;99.90;;;;;;4976007;28;20430;-81
2022/11/16 08:45:32;;;;;;;6.57;3.40;;;13.00;99.90;;;;;;4975135;28;20851;-82
2022/11/16 08:47:58;;;;;;;8.97;2.80;;;13.10;99.90;;;;;;4976069;28;20555;-80
2022/11/16 08:50:23;;;;;;;4.73;2.80;;;13.20;99.90;;;;;;4975775;28;20508;-81
2022/11/16 08:52:49;;;;;;;6.50;3.50;;;13.30;99.90;;;;;;4975874;28;20532;-80
2022/11/16 08:55:17;;;;;;;5.77;3.57;;;13.40;99.90;;;;;;4975800;28;20644;-78
2022/11/16 08:57:42;;;;;;;8.40;2.73;;;13.50;99.90;;;;;;4975899;28;20189;-82
2022/11/16 09:00:10;;;;;;;5.87;2.30;;;13.60;99.90;;;;;;4975777;28;20947;-81
2022/11/16 09:02:35;;;;;;;7.33;2.90;;;13.60;99.90;;;;;;4975587;28;20182;-83
2022/11/16 09:05:01;;;;;;;5.27;2.70;;;13.60;99.90;;;;;;4975472;28;20856;-78
2022/11/16 09:07:26;;;;;;;6.33;3.47;;;13.70;99.90;;;;;;4975554;28;20194;-81
2022/11/16 09:09:52;;;;;;;7.87;4.40;;;13.70;99.90;;;;;;4975444;28;20174;-79
2022/11/16 09:12:18;;;;;;;6.40;2.50;;;13.80;99.90;;;;;;4975525;28;20198;-79
2022/11/16 09:14:43;;;;;;;4.40;2.87;;;13.80;99.90;;;;;;4975462;28;20174;-78
2022/11/16 09:17:09;;;;;;;6.83;2.20;;;13.80;99.90;;;;;;4975473;28;20189;-77
2022/11/16 09:19:34;;;;;;;3.60;2.27;;;13.90;99.90;;;;;;4975197;28;20208;-77
2022/11/16 09:22:00;;;;;;;8.63;2.40;;;13.90;99.90;;;;;;4975339;28;20185;-77
2022/11/16 09:24:25;;;;;;;4.80;2.40;;;13.80;99.90;;;;;;4975151;28;20214;-81
2022/11/16 09:26:51;;;;;;;3.70;2.03;;;14.00;99.90;;;;;;4975277;28;20197;-81
2022/11/16 09:29:16;;;;;;;5.33;2.07;;;14.00;99.90;;;;;;4975248;28;20309;-81
2022/11/16 09:31:42;;;;;;;6.47;2.03;;;14.10;99.90;;;;;;4975015;28;20564;-84
2022/11/16 09:34:07;;;;;;;11.80;2.60;;;14.10;99.90;;;;;;4975203;28;20177;-87
2022/11/16 09:36:33;;;;;;;6.13;2.77;;;14.10;99.90;;;;;;4962254;28;20182;-79
2022/11/16 09:38:59;;;;;;;9.13;2.40;;;14.00;99.90;;;;;;4955720;29;20265;-80
2022/11/16 09:41:58;;;;;;;7.80;2.50;;;14.00;99.90;;;;;;4955498;29;20183;-78
2022/11/16 09:44:45;;;;;;;6.17;2.10;;;14.10;99.90;;;;;;4955469;29;20326;-80
2022/11/16 09:47:18;;;;;;;8.50;3.03;;;14.10;99.90;;;;;;4955515;29;20526;-78
2022/11/16 09:49:52;;;;;;;9.00;2.80;;;14.20;99.90;;;;;;4955478;29;20440;-79
2022/11/16 09:52:39;;;;;;;7.63;2.23;;;14.20;99.90;;;;;;4955474;29;20519;-78
2022/11/16 09:55:27;;;;;;;4.33;1.87;;;14.30;99.90;;;;;;4955410;29;20449;-76
2022/11/16 09:57:57;;;;;;;1.90;1.67;;;14.30;99.90;;;;;;4954349;28;20477;-85
2022/11/16 10:00:23;;;;;;;8.30;3.20;;;14.30;99.90;;;;;;4955226;29;20521;-78
2022/11/16 10:02:59;;;;;;;10.23;2.30;;;14.20;99.90;;;;;;4955493;29;20505;-76
2022/11/16 10:05:41;;;;;;;6.67;2.10;;;14.20;99.90;;;;;;4955113;29;20481;-76
2022/11/16 10:08:25;;;;;;;4.50;1.70;;;14.10;99.90;;;;;;4955134;29;20430;-76
2022/11/16 10:11:21;;;;;;;3.60;1.83;;;14.00;99.90;;;;;;4939773;29;20526;-74
2022/11/16 10:14:23;;;;;;;6.90;1.80;;;14.00;99.90;;;;;;4955211;29;20433;-79
2022/11/16 10:17:04;;;;;;;4.03;2.00;;;13.90;99.90;;;;;;4954746;29;20662;-77
2022/11/16 10:20:07;;;;;;;7.83;2.10;;;13.90;99.90;;;;;;4954931;29;20429;-83
2022/11/16 10:22:54;;;;;;;13.50;1.90;;;14.00;99.90;;;;;;4906020;29;20433;-77
2022/11/16 10:25:23;;;;;;;6.60;2.10;;;14.00;99.90;;;;;;4954789;29;20480;-81
2022/11/16 10:28:16;;;;;;;8.67;3.00;;;13.90;99.90;;;;;;4954990;29;20437;-88
2022/11/16 10:31:04;;;;;;;4.90;1.70;;;13.90;99.90;;;;;;4955311;29;20557;-86
2022/11/16 10:33:35;;;;;;;4.50;2.10;;;14.00;99.90;;;;;;4954933;29;20434;-81
2022/11/16 10:36:07;;;;;;;4.13;1.67;;;14.00;99.90;;;;;;4954903;29;20426;-79
2022/11/16 10:38:33;;;;;;;6.10;1.87;;;14.10;99.90;;;;;;4953820;29;20525;-79
2022/11/16 10:41:13;;;;;;;5.40;2.23;;;14.00;99.90;;;;;;4954476;28;20509;-81
2022/11/16 10:43:40;;;;;;;7.07;2.20;;;14.00;99.90;;;;;;4954563;29;20189;-78
2022/11/16 10:46:18;;;;;;;6.77;2.00;;;14.00;99.90;;;;;;4954559;29;20486;-87
2022/11/16 10:49:06;;;;;;;3.07;1.90;;;14.00;99.90;;;;;;4954732;29;20465;-86
2022/11/16 10:51:31;;;;;;;5.23;1.93;;;14.10;99.90;;;;;;4954117;29;20445;-82
2022/11/16 10:53:57;;;;;;;3.57;1.30;;;14.30;99.90;;;;;;4954299;29;20425;-80
2022/11/16 10:56:28;;;;;;;4.50;1.77;;;14.30;99.90;;;;;;4953152;29;20178;-81
2022/11/16 10:58:59;;;;;;;3.73;1.43;;;14.40;99.90;;;;;;4954322;29;20182;-82
2022/11/16 11:01:57;;;;;;;4.03;1.70;;;14.40;99.90;;;;;;4954322;29;20426;-81
2022/11/16 11:04:28;;;;;;;7.17;1.53;;;14.50;99.90;;;;;;4953976;29;20525;-78
2022/11/16 11:07:20;;;;;;;4.90;1.40;;;14.70;99.90;;;;;;4953780;29;20434;-81
2022/11/16 11:09:52;;;;;;;10.13;2.13;;;14.70;99.90;;;;;;4954177;28;20430;-82
2022/11/16 11:12:37;;;;;;;4.40;1.57;;;14.80;99.90;;;;;;4954334;29;20833;-81
2022/11/16 11:15:09;;;;;;;5.33;1.53;;;14.80;99.90;;;;;;4954222;29;20414;-83
2022/11/16 11:17:36;;;;;;;4.70;1.37;;;14.90;99.90;;;;;;4954122;29;20965;-81
2022/11/16 11:20:04;;;;;;;5.83;1.80;;;14.90;99.90;;;;;;4954232;29;20421;-81
2022/11/16 11:22:33;;;;;;;2.30;1.10;;;15.00;99.90;;;;;;4953972;29;20813;-81
2022/11/16 11:25:02;;;;;;;8.63;1.80;;;15.20;99.90;;;;;;4953956;28;20568;-77
2022/11/16 11:27:32;;;;;;;6.30;1.70;;;15.50;99.90;;;;;;4953854;29;20461;-76
2022/11/16 11:29:59;;;;;;;4.80;1.70;;;15.70;99.90;;;;;;4953789;29;20457;-77
2022/11/16 11:32:38;;;;;;;4.67;1.77;;;15.70;99.90;;;;;;4953451;29;21015;-78
2022/11/16 11:35:05;;;;;;;9.80;2.10;;;15.80;99.90;;;;;;4953430;29;20434;-76
2022/11/16 11:37:36;;;;;;;6.03;1.77;;;15.90;99.90;;;;;;4953613;29;20433;-77
2022/11/16 11:40:19;;;;;;;5.37;2.10;;;15.90;99.90;;;;;;4954054;28;20434;-77
2022/11/16 11:42:54;;;;;;;2.40;1.50;;;16.10;99.90;;;;;;4954382;29;20437;-78
2022/11/16 11:45:37;;;;;;;3.27;1.30;;;16.10;99.90;;;;;;4953980;29;20469;-78
2022/11/16 11:48:22;;;;;;;5.00;1.63;;;16.20;99.90;;;;;;4954078;29;20839;-77
2022/11/16 11:50:53;;;;;;;5.40;1.47;;;16.30;99.90;;;;;;4954000;29;20426;-77
2022/11/16 11:53:42;;;;;;;5.73;1.53;;;16.20;99.90;;;;;;4953684;29;20423;-78
2022/11/16 11:56:11;;;;;;;6.57;2.40;;;16.00;99.90;;;;;;4953866;29;20425;-77
2022/11/16 11:58:39;;;;;;;3.83;1.80;;;15.90;99.90;;;;;;4953728;29;20429;-75
2022/11/16 12:01:33;;;;;;;5.27;2.00;;;15.80;99.90;;;;;;4953777;29;20426;-79
2022/11/16 12:04:33;;;;;;;9.27;2.33;;;15.80;99.90;;;;;;4953660;29;20418;-80
2022/11/16 12:07:18;;;;;;;4.77;1.80;;;15.70;99.90;;;;;;4953600;29;20481;-79
2022/11/16 12:10:03;;;;;;;6.13;1.43;;;15.60;99.90;;;;;;4953669;29;20516;-80
2022/11/16 12:12:31;;;;;;;6.07;2.17;;;15.60;99.90;;;;;;4953872;29;20959;-82
2022/11/16 12:15:02;;;;;;;4.90;1.60;;;15.40;99.90;;;;;;4953609;29;20417;-83
2022/11/16 12:17:36;;;;;;;9.20;2.03;;;15.40;99.90;;;;;;4953637;29;20434;-78
2022/11/16 12:20:24;;;;;;;3.43;1.50;;;15.40;99.90;;;;;;4953764;28;20425;-81
2022/11/16 12:23:08;;;;;;;7.70;2.00;;;15.40;99.90;;;;;;4957035;29;20445;-83
2022/11/16 12:25:55;;;;;;;5.47;1.80;;;15.40;99.90;;;;;;4957144;29;20481;-84
2022/11/16 12:28:46;;;;;;;4.23;1.70;;;15.40;99.90;;;;;;4957026;29;20425;-81
2022/11/16 12:31:45;;;;;;;3.80;2.07;;;15.30;99.90;;;;;;4956282;29;20974;-82
2022/11/16 12:34:48;;;;;;;4.27;1.20;;;15.30;99.90;;;;;;4956605;29;20422;-83
2022/11/16 12:37:24;;;;;;;7.90;1.90;;;15.30;99.90;;;;;;4956350;29;20468;-78
2022/11/16 12:40:17;;;;;;;12.40;1.43;;;15.20;99.90;;;;;;4956795;29;20948;-75
2022/11/16 12:43:05;;;;;;;7.93;1.70;;;15.20;99.90;;;;;;4956667;29;20773;-75
2022/11/16 12:45:55;;;;;;;10.27;1.63;;;15.10;99.90;;;;;;4956332;29;20484;-74
2022/11/16 12:48:46;;;;;;;4.20;1.53;;;15.00;99.90;;;;;;4956432;29;20430;-82
2022/11/16 12:51:11;;;;;;;9.00;1.70;;;15.00;99.90;;;;;;4945439;28;20457;-80
2022/11/16 12:53:43;;;;;;;9.27;2.00;;;15.00;99.90;;;;;;4956404;29;20776;-78
2022/11/16 12:56:19;;;;;;;3.73;1.73;;;15.00;99.90;;;;;;4956557;29;20241;-79
2022/11/16 12:59:07;;;;;;;3.90;1.90;;;15.00;99.90;;;;;;4956365;29;20422;-78
2022/11/16 13:01:51;;;;;;;5.60;2.10;;;15.00;99.90;;;;;;4956907;28;20441;-78
2022/11/16 13:04:27;;;;;;;7.40;1.57;;;15.00;99.90;;;;;;4956657;28;20429;-79
2022/11/16 13:07:03;;;;;;;6.33;1.73;;;15.00;99.90;;;;;;4956154;29;20434;-79
2022/11/16 13:09:34;;;;;;;4.45;1.65;;;15.00;99.90;;;;;;4955934;29;20428;-81
2022/11/16 13:12:04;;;;;;;4.35;1.67;;;15.00;99.90;;;;;;4955058;29;20501;-76
2022/11/16 13:14:37;;;;;;;2.43;1.47;;;15.00;99.90;;;;;;4955838;29;20430;-78
2022/11/16 13:17:05;;;;;;;4.97;1.80;;;15.10;99.90;;;;;;4956180;29;20478;-77
2022/11/16 13:19:31;;;;;;;2.10;1.30;;;15.30;99.90;;;;;;4955805;29;20708;-76
2022/11/16 13:22:16;;;;;;;5.50;1.57;;;15.20;99.90;;;;;;4955911;29;20434;-79
2022/11/16 13:25:01;;;;;;;7.40;1.67;;;15.20;99.90;;;;;;4955945;29;20465;-77
2022/11/16 13:27:46;;;;;;;2.87;1.07;;;15.10;99.90;;;;;;4955872;29;20430;-77
2022/11/16 13:30:27;;;;;;;2.60;1.60;;;15.10;99.90;;;;;;4938084;29;20589;-77
2022/11/16 13:33:21;;;;;;;4.80;1.60;;;15.10;99.90;;;;;;4955762;28;20444;-77
2022/11/16 13:35:46;;;;;;;9.03;1.50;;;15.10;99.90;;;;;;4938402;29;20457;-81
2022/11/16 13:38:12;;;;;;;7.60;2.23;;;15.10;99.90;;;;;;4955402;29;20936;-77
2022/11/16 13:40:39;;;;;;;4.80;1.70;;;15.10;99.90;;;;;;4955552;28;20181;-79
2022/11/16 13:43:15;;;;;;;4.23;1.40;;;15.20;99.90;;;;;;4955586;29;20990;-79
2022/11/16 13:46:01;;;;;;;8.80;1.90;;;15.10;99.90;;;;;;4955481;29;20493;-80
2022/11/16 13:48:34;;;;;;;3.07;1.70;;;15.00;99.90;;;;;;4955238;29;20517;-78
2022/11/16 13:51:03;;;;;;;7.57;2.03;;;15.10;99.90;;;;;;4954983;29;20433;-80
2022/11/16 13:53:36;;;;;;;4.23;1.23;;;15.00;99.90;;;;;;4955333;29;20775;-83
2022/11/16 13:56:04;;;;;;;3.90;1.57;;;15.00;99.90;;;;;;4955556;28;20525;-82
2022/11/16 13:58:32;;;;;;;4.53;1.37;;;14.90;99.90;;;;;;4955299;29;20466;-83
2022/11/16 14:01:07;;;;;;;8.70;1.63;;;14.70;99.90;;;;;;4955599;29;20422;-85
2022/11/16 14:03:50;;;;;;;4.43;1.90;;;14.70;99.90;;;;;;4955621;29;20437;-82
2022/11/16 14:06:18;;;;;;;4.50;1.73;;;14.60;99.90;;;;;;4954880;29;21023;-84
2022/11/16 14:08:55;;;;;;;5.43;1.73;;;14.50;99.90;;;;;;4956036;29;20501;-86
2022/11/16 14:11:35;;;;;;;8.60;1.77;;;14.50;99.90;;;;;;4956017;29;20426;-84
2022/11/16 14:14:28;;;;;;;4.47;2.50;;;14.50;99.90;;;;;;4956079;29;20422;-85
2022/11/16 14:16:54;;;;;;;2.60;1.37;;;14.50;99.90;;;;;;4954658;28;20517;-85
2022/11/16 14:19:48;;;;;;;3.40;1.93;;;14.40;99.90;;;;;;4955995;29;20580;-85
2022/11/16 14:22:50;;;;;;;2.87;1.33;;;14.40;99.90;;;;;;4955589;29;20182;-85
2022/11/16 14:25:29;;;;;;;5.40;2.20;;;14.40;99.90;;;;;;4955707;29;20458;-85
2022/11/16 14:28:28;;;;;;;3.67;1.80;;;14.40;99.90;;;;;;4955929;29;20447;-85
2022/11/16 14:31:08;;;;;;;2.77;1.10;;;14.50;99.90;;;;;;4955425;29;20462;-84
2022/11/16 14:33:35;;;;;;;7.83;1.60;;;14.50;99.90;;;;;;4955702;29;20438;-85
2022/11/16 14:36:03;;;;;;;6.60;1.40;;;14.60;99.90;;;;;;4955738;29;20452;-85
2022/11/16 14:38:32;;;;;;;3.30;1.33;;;14.60;99.90;;;;;;4955501;29;20949;-84
2022/11/16 14:41:01;;;;;;;7.90;1.83;;;14.60;99.90;;;;;;4955169;29;20796;-84
2022/11/16 14:43:32;;;;;;;9.93;1.43;;;14.50;99.90;;;;;;4954919;28;20508;-84
2022/11/16 14:46:06;;;;;;;3.80;1.50;;;14.50;99.90;;;;;;4955437;29;20569;-85
2022/11/16 14:48:32;;;;;;;2.50;1.30;;;14.50;99.90;;;;;;4955442;29;20430;-85
2022/11/16 14:51:06;;;;;;;6.43;2.73;;;14.50;99.90;;;;;;4955005;29;20793;-84
2022/11/16 14:53:35;;;;;;;3.83;1.40;;;14.30;99.90;;;;;;4955189;29;20425;-84
2022/11/16 14:56:11;;;;;;;6.50;1.77;;;14.30;99.90;;;;;;4955123;29;20799;-85
2022/11/16 14:58:38;;;;;;;4.70;1.60;;;14.20;99.90;;;;;;4955259;29;20430;-85
2022/11/16 15:01:13;;;;;;;6.33;1.60;;;14.40;99.90;;;;;;4955287;29;20462;-84
2022/11/16 15:04:01;;;;;;;6.27;1.87;;;14.30;99.90;;;;;;4955379;29;20457;-84
2022/11/16 15:06:27;;;;;;;5.00;1.80;;;14.40;99.90;;;;;;4937878;29;20929;-84
2022/11/16 15:08:58;;;;;;;5.10;1.63;;;14.30;99.90;;;;;;4954504;29;20433;-82
2022/11/16 15:14:28;;;;;;;5.23;1.53;;;14.20;99.90;;;;;;4954456;29;20476;-77
2022/11/16 15:16:56;;;;;;;5.73;1.63;;;14.20;99.90;;;;;;4954417;29;20508;-80
2022/11/16 15:19:23;;;;;;;2.80;1.50;;;14.10;99.90;;;;;;4953648;28;20418;-78
2022/11/16 15:21:53;;;;;;;8.03;2.17;;;14.10;99.90;;;;;;4953856;29;20767;-77
2022/11/16 15:24:28;;;;;;;3.03;1.30;;;14.00;99.90;;;;;;4954030;29;20815;-77
2022/11/16 15:27:01;;;;;;;2.70;1.67;;;14.00;99.90;;;;;;4954340;29;20528;-76
2022/11/16 15:29:27;;;;;;;5.43;1.63;;;14.00;99.90;;;;;;4953667;29;20794;-77
2022/11/16 15:31:52;;;;;;;6.87;2.47;;;14.00;99.90;;;;;;4953836;28;20482;-76
2022/11/16 15:34:18;;;;;;;3.03;1.60;;;14.10;99.90;;;;;;4953869;29;20175;-78
2022/11/16 15:36:45;;;;;;;2.70;1.87;;;14.00;99.90;;;;;;4953972;29;20515;-76
2022/11/16 15:39:16;;;;;;;6.33;1.77;;;14.00;99.90;;;;;;4953482;29;20426;-78
2022/11/16 15:41:42;;;;;;;10.52;2.30;;;14.00;99.90;;;;;;4953065;29;20428;-78
2022/11/16 15:44:21;;;;;;;6.40;1.87;;;14.10;99.90;;;;;;4953631;28;20201;-74
2022/11/16 15:46:49;;;;;;;2.50;1.50;;;14.10;99.90;;;;;;4953617;29;20430;-76
2022/11/16 15:49:28;;;;;;;7.40;2.20;;;14.10;99.90;;;;;;4953352;29;20465;-76
2022/11/16 15:51:56;;;;;;;4.97;2.30;;;14.00;99.90;;;;;;4953748;29;20797;-75
2022/11/16 15:54:27;;;;;;;4.23;1.30;;;13.90;99.90;;;;;;4952730;28;20477;-76
2022/11/16 15:56:56;;;;;;;2.30;1.33;;;13.90;99.90;;;;;;4956688;29;20430;-75
2022/11/16 15:59:27;;;;;;;7.27;2.10;;;13.90;99.90;;;;;;4957239;29;20529;-75
2022/11/16 16:01:53;;;;;;;6.53;1.60;;;13.90;99.90;;;;;;4957306;29;20422;-75
2022/11/16 16:04:20;;;;;;;7.37;1.70;;;13.80;99.90;;;;;;4957052;29;20437;-75
2022/11/16 16:06:57;;;;;;;5.67;1.97;;;13.80;99.90;;;;;;4957344;29;20448;-76
2022/11/16 16:09:38;;;;;;;5.40;2.20;;;13.80;99.90;;;;;;4940034;29;20432;-76
2022/11/16 16:12:21;;;;;;;8.30;2.77;;;13.70;99.90;;;;;;4957217;29;20440;-75
2022/11/16 16:14:48;;;;;;;3.60;1.97;;;13.60;99.90;;;;;;4956961;28;20508;-75
2022/11/16 16:17:25;;;;;;;5.67;2.67;;;13.60;99.90;;;;;;4957089;29;20430;-76
2022/11/16 16:19:59;;;;;;;5.57;1.60;;;13.50;99.90;;;;;;4956984;29;20441;-73
2022/11/16 16:22:36;;;;;;;8.57;1.87;;;13.60;99.90;;;;;;4957010;29;20448;-75
2022/11/16 16:25:05;;;;;;;7.23;2.23;;;13.60;99.90;;;;;;4956912;29;20476;-74
2022/11/16 16:27:35;;;;;;;9.00;2.90;;;13.60;99.90;;;;;;4956844;29;20790;-74
2022/11/16 16:30:04;;;;;;;6.27;2.00;;;13.60;99.90;;;;;;4957088;29;20437;-72
2022/11/16 16:32:32;;;;;;;3.40;1.93;;;13.70;99.90;;;;;;4956564;29;20509;-73
2022/11/16 16:35:04;;;;;;;4.13;2.10;;;13.60;99.90;;;;;;4956711;29;20517;-73
2022/11/16 16:37:31;;;;;;;4.40;2.00;;;13.60;99.90;;;;;;4939397;29;20921;-78
2022/11/16 16:39:57;;;;;;;7.40;2.33;;;13.60;99.90;;;;;;4956645;29;20789;-76
2022/11/16 16:42:23;;;;;;;12.73;3.03;;;13.60;99.90;;;;;;4956363;29;20842;-77
2022/11/16 16:44:49;;;;;;;4.13;2.10;;;13.60;99.90;;;;;;4955583;29;20527;-77
2022/11/16 16:47:16;;;;;;;4.70;1.83;;;13.60;99.90;;;;;;4956653;29;20191;-77
2022/11/16 16:49:42;;;;;;;7.80;2.40;;;13.60;99.90;;;;;;4956461;29;20809;-77
2022/11/16 16:52:10;;;;;;;5.13;2.00;;;13.60;99.90;;;;;;4955868;29;20566;-77
2022/11/16 16:54:36;;;;;;;6.87;2.80;;;13.60;99.90;;;;;;4957098;28;20175;-74
2022/11/16 16:57:02;;;;;;;11.17;3.43;;;13.60;99.90;;;;;;4958337;28;20468;-71
2022/11/16 16:59:30;;;;;;;5.20;2.73;;;13.50;99.90;;;;;;4945329;28;20197;-73
2022/11/16 17:01:57;;;;;;;5.37;2.43;;;13.50;99.90;;;;;;4957978;28;20229;-78
2022/11/16 17:04:23;;;;;;;2.97;2.20;;;13.60;99.90;;;;;;4955803;29;20434;-74
2022/11/16 17:06:50;;;;;;;4.83;2.50;;;13.60;99.90;;;;;;4956194;28;20473;-76
2022/11/16 17:09:15;;;;;;;10.57;3.90;;;13.50;99.90;;;;;;4963948;28;20500;-75